createdAt,value
2022-11-02T00:01:59.208Z,100.00
2022-11-02T00:04:26.963Z,100.00
2022-11-02T00:06:54.679Z,100.00
2022-11-02T00:09:22.391Z,100.00
2022-11-02T00:11:50.384Z,100.00
2022-11-02T00:14:18.235Z,100.00
2022-11-02T00:16:46.403Z,100.00
2022-11-02T00:19:14.686Z,100.00
2022-11-02T00:21:42.760Z,100.00
2022-11-02T00:24:12.692Z,100.00
2022-11-02T00:26:40.543Z,100.00
2022-11-02T00:29:08.614Z,100.00
2022-11-02T00:31:36.640Z,100.00
2022-11-02T00:34:04.459Z,100.00
2022-11-02T00:36:32.278Z,100.00
2022-11-02T00:39:00.146Z,100.00
2022-11-02T00:41:27.927Z,100.00
2022-11-02T00:43:55.711Z,100.00
2022-11-02T00:46:23.451Z,100.00
2022-11-02T00:48:51.505Z,100.00
2022-11-02T00:51:19.536Z,100.00
2022-11-02T00:53:47.703Z,100.00
2022-11-02T00:56:15.673Z,100.00
2022-11-02T00:58:43.712Z,100.00
2022-11-02T01:01:12.641Z,100.00
2022-11-02T01:03:40.847Z,100.00
2022-11-02T01:06:13.894Z,100.00
2022-11-02T01:08:42.380Z,100.00
2022-11-02T01:11:16.722Z,100.00
2022-11-02T01:13:46.003Z,100.00
2022-11-02T01:16:15.467Z,100.00
2022-11-02T01:18:44.008Z,100.00
2022-11-02T01:21:11.816Z,100.00
2022-11-02T01:23:40.540Z,100.00
2022-11-02T01:26:09.842Z,100.00
2022-11-02T01:28:38.131Z,100.00
2022-11-02T01:31:07.257Z,100.00
2022-11-02T01:33:36.441Z,100.00
2022-11-02T01:36:06.853Z,100.00
2022-11-02T01:38:34.655Z,100.00
2022-11-02T01:41:02.443Z,100.00
2022-11-02T01:43:32.830Z,100.00
2022-11-02T01:46:19.312Z,100.00
2022-11-02T01:48:53.275Z,100.00
2022-11-02T01:51:27.107Z,100.00
2022-11-02T01:54:00.236Z,100.00
2022-11-02T01:56:33.089Z,100.00
2022-11-02T01:59:06.592Z,100.00
2022-11-02T02:01:34.840Z,100.00
2022-11-02T02:04:03.334Z,100.00
2022-11-02T02:06:36.545Z,100.00
2022-11-02T02:09:08.091Z,100.00
2022-11-02T02:11:38.864Z,100.00
2022-11-02T02:14:19.941Z,100.00
2022-11-02T02:16:54.288Z,100.00
2022-11-02T02:19:34.346Z,100.00
2022-11-02T02:22:09.624Z,100.00
2022-11-02T02:24:54.101Z,100.00
2022-11-02T02:27:35.145Z,100.00
2022-11-02T02:30:09.859Z,100.00
2022-11-02T02:32:41.341Z,100.00
2022-11-02T02:35:25.828Z,100.00
2022-11-02T02:37:53.553Z,100.00
2022-11-02T02:40:27.539Z,100.00
2022-11-02T02:43:04.244Z,100.00
2022-11-02T02:45:52.693Z,100.00
2022-11-02T02:48:23.448Z,100.00
2022-11-02T02:50:57.133Z,100.00
2022-11-02T02:53:32.592Z,100.00
2022-11-02T02:56:02.597Z,100.00
2022-11-02T02:58:38.897Z,100.00
2022-11-02T03:01:11.102Z,100.00
2022-11-02T03:03:42.434Z,100.00
2022-11-02T03:06:15.980Z,100.00
2022-11-02T03:08:58.638Z,100.00
2022-11-02T03:11:28.201Z,100.00
2022-11-02T03:14:12.519Z,100.00
2022-11-02T03:16:55.808Z,100.00
2022-11-02T03:19:36.919Z,100.00
2022-11-02T03:22:16.640Z,100.00
2022-11-02T03:24:55.555Z,100.00
2022-11-02T03:27:51.164Z,100.00
2022-11-02T03:30:22.542Z,100.00
2022-11-02T03:33:07.463Z,100.00
2022-11-02T03:35:51.408Z,100.00
2022-11-02T03:38:22.347Z,100.00
2022-11-02T03:40:54.326Z,100.00
2022-11-02T03:43:25.179Z,100.00
2022-11-02T03:46:02.180Z,100.00
2022-11-02T03:48:36.152Z,100.00
2022-11-02T03:51:10.568Z,100.00
2022-11-02T03:53:53.505Z,100.00
2022-11-02T03:56:45.623Z,100.00
2022-11-02T03:59:14.536Z,100.00
2022-11-02T04:01:46.434Z,100.00
2022-11-02T04:04:14.772Z,100.00
2022-11-02T04:06:47.019Z,100.00
2022-11-02T04:09:15.576Z,100.00
2022-11-02T04:12:02.675Z,100.00
2022-11-02T04:14:40.215Z,100.00
2022-11-02T04:17:32.356Z,100.00
2022-11-02T04:20:01.986Z,100.00
2022-11-02T04:22:49.100Z,100.00
2022-11-02T04:25:19.345Z,100.00
2022-11-02T04:28:10.110Z,100.00
2022-11-02T04:30:50.423Z,100.00
2022-11-02T04:33:35.431Z,100.00
2022-11-02T04:36:15.490Z,100.00
2022-11-02T04:38:44.350Z,100.00
2022-11-02T04:41:41.263Z,100.00
2022-11-02T04:44:29.251Z,100.00
2022-11-02T04:47:03.428Z,100.00
2022-11-02T04:49:33.171Z,100.00
2022-11-02T04:52:01.267Z,100.00
2022-11-02T04:54:29.802Z,100.00
2022-11-02T04:57:01.002Z,100.00
2022-11-02T04:59:29.368Z,100.00
2022-11-02T05:01:57.497Z,100.00
2022-11-02T05:04:25.629Z,100.00
2022-11-02T05:06:56.383Z,100.00
2022-11-02T05:09:28.135Z,100.00
2022-11-02T05:11:56.170Z,100.00
2022-11-02T05:14:23.996Z,100.00
2022-11-02T05:16:52.260Z,100.00
2022-11-02T05:19:20.057Z,100.00
2022-11-02T05:21:48.809Z,100.00
2022-11-02T05:24:16.651Z,100.00
2022-11-02T05:26:44.475Z,100.00
2022-11-02T05:29:13.445Z,100.00
2022-11-02T05:31:41.768Z,100.00
2022-11-02T05:34:09.507Z,100.00
2022-11-02T05:36:38.297Z,100.00
2022-11-02T05:39:06.132Z,100.00
2022-11-02T05:41:34.173Z,100.00
2022-11-02T05:44:02.474Z,100.00
2022-11-02T05:46:31.454Z,100.00
2022-11-02T05:48:59.183Z,100.00
2022-11-02T05:51:26.920Z,100.00
2022-11-02T05:53:55.006Z,100.00
2022-11-02T05:56:25.212Z,100.00
2022-11-02T05:58:55.149Z,100.00
2022-11-02T06:01:22.958Z,100.00
2022-11-02T06:03:53.754Z,100.00
2022-11-02T06:06:22.328Z,100.00
2022-11-02T06:08:50.069Z,100.00
2022-11-02T06:11:17.910Z,100.00
2022-11-02T06:13:50.421Z,100.00
2022-11-02T06:16:23.099Z,100.00
2022-11-02T06:18:51.862Z,100.00
2022-11-02T06:21:19.691Z,100.00
2022-11-02T06:23:48.663Z,100.00
2022-11-02T06:26:16.514Z,100.00
2022-11-02T06:28:44.361Z,100.00
2022-11-02T06:31:13.312Z,100.00
2022-11-02T06:33:41.056Z,100.00
2022-11-02T06:36:09.202Z,100.00
2022-11-02T06:38:38.722Z,100.00
2022-11-02T06:41:06.984Z,100.00
2022-11-02T06:43:38.619Z,100.00
2022-11-02T06:46:06.688Z,100.00
2022-11-02T06:48:35.545Z,100.00
2022-11-02T06:51:05.301Z,100.00
2022-11-02T06:53:33.932Z,100.00
2022-11-02T06:56:02.367Z,100.00
2022-11-02T06:58:30.247Z,100.00
2022-11-02T07:01:00.730Z,100.00
2022-11-02T07:03:30.291Z,100.00
2022-11-02T07:05:58.439Z,100.00
2022-11-02T07:08:27.668Z,100.00
2022-11-02T07:10:56.522Z,100.00
2022-11-02T07:13:24.644Z,100.00
2022-11-02T07:15:54.273Z,100.00
2022-11-02T07:18:22.865Z,100.00
2022-11-02T07:20:50.650Z,100.00
2022-11-02T07:23:18.583Z,100.00
2022-11-02T07:25:46.518Z,100.00
2022-11-02T07:28:14.326Z,100.00
2022-11-02T07:30:42.235Z,100.00
2022-11-02T07:33:10.204Z,100.00
2022-11-02T07:35:38.348Z,100.00
2022-11-02T07:38:07.796Z,100.00
2022-11-02T07:40:36.840Z,100.00
2022-11-02T07:43:06.383Z,100.00
2022-11-02T07:46:04.169Z,100.00
2022-11-02T07:48:32.164Z,100.00
2022-11-02T07:51:00.066Z,100.00
2022-11-02T07:53:28.110Z,100.00
2022-11-02T07:55:55.791Z,100.00
2022-11-02T07:58:23.538Z,100.00
2022-11-02T08:00:55.858Z,100.00
2022-11-02T08:03:27.409Z,100.00
2022-11-02T08:06:02.093Z,100.00
2022-11-02T08:08:31.028Z,100.00
2022-11-02T08:11:07.110Z,100.00
2022-11-02T08:13:35.396Z,100.00
2022-11-02T08:16:03.557Z,100.00
2022-11-02T08:18:51.261Z,100.00
2022-11-02T08:21:19.141Z,100.00
2022-11-02T08:23:46.955Z,100.00
2022-11-02T08:26:14.750Z,100.00
2022-11-02T08:28:42.654Z,100.00
2022-11-02T08:31:15.981Z,100.00
2022-11-02T08:33:44.956Z,100.00
2022-11-02T08:36:12.871Z,100.00
2022-11-02T08:38:40.745Z,100.00
2022-11-02T08:41:08.665Z,100.00
2022-11-02T08:43:36.517Z,100.00
2022-11-02T08:46:19.658Z,100.00
2022-11-02T08:48:47.733Z,100.00
2022-11-02T08:51:15.812Z,100.00
2022-11-02T08:53:48.625Z,100.00
2022-11-02T08:56:19.429Z,100.00
2022-11-02T08:58:47.267Z,100.00
2022-11-02T09:01:15.246Z,100.00
2022-11-02T09:03:43.152Z,100.00
2022-11-02T09:06:10.960Z,100.00
2022-11-02T09:08:38.834Z,100.00
2022-11-02T09:11:07.088Z,100.00
2022-11-02T09:13:34.939Z,100.00
2022-11-02T09:16:03.259Z,100.00
2022-11-02T09:18:31.435Z,100.00
2022-11-02T09:21:05.602Z,100.00
2022-11-02T09:23:33.824Z,100.00
2022-11-02T09:26:01.694Z,100.00
2022-11-02T09:28:29.556Z,100.00
2022-11-02T09:30:57.364Z,100.00
2022-11-02T09:33:25.191Z,100.00
2022-11-02T09:35:53.262Z,100.00
2022-11-02T09:38:21.130Z,100.00
2022-11-02T09:41:02.455Z,100.00
2022-11-02T09:44:03.777Z,100.00
2022-11-02T09:46:34.499Z,100.00
2022-11-02T09:49:11.992Z,100.00
2022-11-02T09:51:47.401Z,100.00
2022-11-02T09:54:30.973Z,100.00
2022-11-02T09:57:04.591Z,100.00
2022-11-02T09:59:33.261Z,100.00
2022-11-02T10:02:19.924Z,100.00
2022-11-02T10:05:00.240Z,100.00
2022-11-02T10:07:52.620Z,100.00
2022-11-02T10:10:27.632Z,100.00
2022-11-02T10:12:58.647Z,100.00
2022-11-02T10:15:40.401Z,100.00
2022-11-02T10:18:18.138Z,100.00
2022-11-02T10:20:49.848Z,100.00
2022-11-02T10:23:29.130Z,100.00
2022-11-02T10:25:57.063Z,100.00
2022-11-02T10:28:30.667Z,100.00
2022-11-02T10:30:58.921Z,100.00
2022-11-02T10:33:28.393Z,100.00
2022-11-02T10:36:23.682Z,100.00
2022-11-02T10:39:05.278Z,100.00
2022-11-02T10:41:52.442Z,100.00
2022-11-02T10:44:45.047Z,100.00
2022-11-02T10:47:20.611Z,100.00
2022-11-02T10:50:25.696Z,100.00
2022-11-02T10:52:53.529Z,100.00
2022-11-02T10:55:49.707Z,100.00
2022-11-02T10:58:21.489Z,100.00
2022-11-02T11:00:49.847Z,100.00
2022-11-02T11:03:19.075Z,100.00
2022-11-02T11:05:49.701Z,100.00
2022-11-02T11:08:39.044Z,100.00
2022-11-02T11:11:18.950Z,100.00
2022-11-02T11:16:50.257Z,100.00
2022-11-02T11:22:33.104Z,100.00
2022-11-02T11:25:13.311Z,100.00
2022-11-02T11:27:54.919Z,100.00
2022-11-02T11:33:23.475Z,100.00
2022-11-02T11:35:51.939Z,100.00
2022-11-02T11:38:22.807Z,100.00
2022-11-02T11:40:54.550Z,100.00
2022-11-02T11:43:26.913Z,100.00
2022-11-02T11:46:05.833Z,100.00
2022-11-02T11:48:38.237Z,100.00
2022-11-02T11:51:25.127Z,100.00
2022-11-02T11:54:15.166Z,99.95
2022-11-02T11:56:42.997Z,100.00
2022-11-02T11:59:28.192Z,100.00
2022-11-02T12:01:58.777Z,100.00
2022-11-02T12:04:28.447Z,100.00
2022-11-02T12:07:45.694Z,100.00
2022-11-02T12:10:32.577Z,100.00
2022-11-02T12:13:20.640Z,99.90
2022-11-02T12:16:17.650Z,99.90
2022-11-02T12:19:07.595Z,100.00
2022-11-02T12:21:46.047Z,100.00
2022-11-02T12:24:39.044Z,100.00
2022-11-02T12:27:23.043Z,100.00
2022-11-02T12:30:09.578Z,100.00
2022-11-02T12:32:50.244Z,100.00
2022-11-02T12:35:43.255Z,99.91
2022-11-02T12:38:41.940Z,99.93
2022-11-02T12:41:22.440Z,100.00
2022-11-02T12:43:58.388Z,100.00
2022-11-02T12:46:44.517Z,100.00
2022-11-02T12:49:36.531Z,100.00
2022-11-02T12:52:13.631Z,99.90
2022-11-02T12:54:48.125Z,100.00
2022-11-02T12:57:21.068Z,99.54
2022-11-02T12:59:55.250Z,98.19
2022-11-02T13:02:29.450Z,98.38
2022-11-02T13:05:17.781Z,98.14
2022-11-02T13:07:59.534Z,97.56
2022-11-02T13:10:43.055Z,98.83
2022-11-02T13:13:16.469Z,99.69
2022-11-02T13:15:47.387Z,99.36
2022-11-02T13:18:24.051Z,98.66
2022-11-02T13:20:55.709Z,97.89
2022-11-02T13:23:46.518Z,96.88
2022-11-02T13:26:27.507Z,97.06
2022-11-02T13:28:57.245Z,96.63
2022-11-02T13:31:46.748Z,97.69
2022-11-02T13:34:41.481Z,96.94
2022-11-02T13:37:35.927Z,98.55
2022-11-02T13:40:28.262Z,98.81
2022-11-02T13:43:23.278Z,99.65
2022-11-02T13:46:40.031Z,99.92
2022-11-02T13:49:19.752Z,100.00
2022-11-02T13:51:59.615Z,99.86
2022-11-02T13:54:30.328Z,100.00
2022-11-02T13:56:59.065Z,100.00
2022-11-02T13:59:33.399Z,100.00
2022-11-02T14:02:03.609Z,100.00
2022-11-02T14:04:43.095Z,100.00
2022-11-02T14:07:28.065Z,100.00
2022-11-02T14:10:08.751Z,100.00
2022-11-02T14:12:43.525Z,100.00
2022-11-02T14:15:14.170Z,100.00
2022-11-02T14:17:54.782Z,100.00
2022-11-02T14:20:44.679Z,100.00
2022-11-02T14:23:14.274Z,100.00
2022-11-02T14:25:53.504Z,100.00
2022-11-02T14:28:28.962Z,100.00
2022-11-02T14:31:06.088Z,100.00
2022-11-02T14:33:52.949Z,100.00
2022-11-02T14:36:42.152Z,100.00
2022-11-02T14:39:29.052Z,100.00
2022-11-02T14:41:57.123Z,100.00
2022-11-02T14:44:37.107Z,100.00
2022-11-02T14:47:17.430Z,100.00
2022-11-02T14:49:56.257Z,100.00
2022-11-02T14:52:24.089Z,100.00
2022-11-02T14:55:08.265Z,100.00
2022-11-02T14:57:40.681Z,100.00
2022-11-02T15:00:47.657Z,100.00
2022-11-02T15:03:25.333Z,100.00
2022-11-02T15:06:03.211Z,100.00
2022-11-02T15:08:36.302Z,100.00
2022-11-02T15:11:41.946Z,100.00
2022-11-02T15:14:39.019Z,100.00
2022-11-02T15:17:13.029Z,100.00
2022-11-02T15:19:46.436Z,100.00
2022-11-02T15:22:32.677Z,100.00
2022-11-02T15:25:07.283Z,100.00
2022-11-02T15:27:41.343Z,100.00
2022-11-02T15:30:29.005Z,100.00
2022-11-02T15:33:02.822Z,100.00
2022-11-02T15:35:37.110Z,100.00
2022-11-02T15:38:30.468Z,100.00
2022-11-02T15:41:08.000Z,100.00
2022-11-02T15:44:04.067Z,100.00
2022-11-02T15:46:45.351Z,100.00
2022-11-02T15:49:32.125Z,100.00
2022-11-02T15:52:25.129Z,100.00
2022-11-02T15:54:55.607Z,100.00
2022-11-02T15:57:36.500Z,100.00
2022-11-02T16:00:30.508Z,100.00
2022-11-02T16:03:06.665Z,100.00
2022-11-02T16:05:45.370Z,100.00
2022-11-02T16:11:21.062Z,100.00
2022-11-02T16:14:07.577Z,100.00
2022-11-02T16:16:46.169Z,100.00
2022-11-02T16:19:20.326Z,100.00
2022-11-02T16:21:48.254Z,100.00
2022-11-02T16:24:15.248Z,100.00
2022-11-02T16:26:44.102Z,100.00
2022-11-02T16:29:11.321Z,100.00
2022-11-02T16:31:40.315Z,100.00
2022-11-02T16:34:29.937Z,100.00
2022-11-02T16:36:59.384Z,100.00
2022-11-02T16:39:37.957Z,100.00
2022-11-02T16:42:15.068Z,100.00
2022-11-02T16:44:42.760Z,100.00
2022-11-02T16:47:09.334Z,100.00
2022-11-02T16:49:57.436Z,100.00
2022-11-02T16:52:35.591Z,100.00
2022-11-02T16:55:22.236Z,100.00
2022-11-02T16:57:48.868Z,100.00
2022-11-02T17:00:19.699Z,100.00
2022-11-02T17:02:47.029Z,100.00
2022-11-02T17:05:22.878Z,100.00
2022-11-02T17:08:04.121Z,100.00
2022-11-02T17:10:33.875Z,100.00
2022-11-02T17:13:02.354Z,100.00
2022-11-02T17:15:31.758Z,100.00
2022-11-02T17:18:07.418Z,100.00
2022-11-02T17:20:34.955Z,100.00
2022-11-02T17:23:07.235Z,100.00
2022-11-02T17:25:36.283Z,100.00
2022-11-02T17:28:24.088Z,100.00
2022-11-02T17:30:52.233Z,100.00
2022-11-02T17:33:24.161Z,100.00
2022-11-02T17:35:53.098Z,100.00
2022-11-02T17:38:25.971Z,100.00
2022-11-02T17:40:53.774Z,100.00
2022-11-02T17:43:21.851Z,100.00
2022-11-02T17:45:58.956Z,100.00
2022-11-02T17:48:30.351Z,100.00
2022-11-02T17:50:59.218Z,100.00
2022-11-02T17:53:26.128Z,100.00
2022-11-02T17:55:53.834Z,100.00
2022-11-02T17:58:20.255Z,100.00
2022-11-02T18:00:46.824Z,100.00
2022-11-02T18:03:16.664Z,100.00
2022-11-02T18:05:46.631Z,100.00
2022-11-02T18:08:16.686Z,100.00
2022-11-02T18:10:45.875Z,100.00
2022-11-02T18:13:14.383Z,100.00
2022-11-02T18:15:41.246Z,100.00
2022-11-02T18:18:08.173Z,100.00
2022-11-02T18:20:40.177Z,100.00
2022-11-02T18:23:14.749Z,100.00
2022-11-02T18:25:41.500Z,100.00
2022-11-02T18:28:08.160Z,100.00
2022-11-02T18:30:34.897Z,100.00
2022-11-02T18:33:02.264Z,100.00
2022-11-02T18:35:28.782Z,100.00
2022-11-02T18:37:55.221Z,100.00
2022-11-02T18:40:21.849Z,100.00
2022-11-02T18:42:49.248Z,100.00
2022-11-02T18:45:16.188Z,100.00
2022-11-02T18:47:42.858Z,100.00
2022-11-02T18:50:11.782Z,100.00
2022-11-02T18:52:39.673Z,100.00
2022-11-02T18:55:06.702Z,100.00
2022-11-02T18:57:33.439Z,100.00
2022-11-02T19:00:02.204Z,100.00
2022-11-02T19:02:29.487Z,100.00
2022-11-02T19:04:56.280Z,100.00
2022-11-02T19:07:41.462Z,100.00
2022-11-02T19:10:09.207Z,100.00
2022-11-02T19:12:35.910Z,100.00
2022-11-02T19:15:02.490Z,100.00
2022-11-02T19:17:29.287Z,100.00
2022-11-02T19:19:56.554Z,100.00
2022-11-02T19:22:25.128Z,100.00
2022-11-02T19:24:52.000Z,100.00
2022-11-02T19:27:23.528Z,100.00
2022-11-02T19:29:50.734Z,100.00
2022-11-02T19:32:18.091Z,100.00
2022-11-02T19:34:45.138Z,100.00
2022-11-02T19:37:12.316Z,100.00
2022-11-02T19:39:39.064Z,100.00
2022-11-02T19:42:06.741Z,100.00
2022-11-02T19:44:35.985Z,100.00
2022-11-02T19:47:07.557Z,100.00
2022-11-02T19:49:33.933Z,100.00
2022-11-02T19:52:00.725Z,100.00
2022-11-02T19:54:27.258Z,100.00
2022-11-02T19:56:53.768Z,100.00
2022-11-02T19:59:20.255Z,100.00
2022-11-02T20:01:47.887Z,100.00
2022-11-02T20:04:14.585Z,100.00
2022-11-02T20:06:43.012Z,100.00
2022-11-02T20:09:15.708Z,100.00
2022-11-02T20:11:44.541Z,100.00
2022-11-02T20:14:12.857Z,100.00
2022-11-02T20:16:39.908Z,100.00
2022-11-02T20:19:07.258Z,100.00
2022-11-02T20:21:38.210Z,100.00
2022-11-02T20:24:08.256Z,100.00
2022-11-02T20:26:36.085Z,100.00
2022-11-02T20:29:04.781Z,100.00
2022-11-02T20:31:36.871Z,100.00
2022-11-02T20:34:05.784Z,100.00
2022-11-02T20:36:34.072Z,100.00
2022-11-02T20:39:02.754Z,100.00
2022-11-02T20:41:29.215Z,100.00
2022-11-02T20:43:56.381Z,100.00
2022-11-02T20:46:44.505Z,100.00
2022-11-02T20:49:21.846Z,100.00
2022-11-02T20:51:50.347Z,100.00
2022-11-02T20:54:18.702Z,100.00
2022-11-02T20:56:45.477Z,100.00
2022-11-02T20:59:12.054Z,100.00
2022-11-02T21:01:38.576Z,100.00
2022-11-02T21:04:05.360Z,100.00
2022-11-02T21:06:31.869Z,100.00
2022-11-02T21:08:59.942Z,100.00
2022-11-02T21:11:45.346Z,100.00
2022-11-02T21:14:11.777Z,100.00
2022-11-02T21:16:38.419Z,100.00
2022-11-02T21:19:04.926Z,100.00
2022-11-02T21:21:31.526Z,100.00
2022-11-02T21:23:57.936Z,100.00
2022-11-02T21:26:24.419Z,100.00
2022-11-02T21:28:50.882Z,100.00
2022-11-02T21:31:19.756Z,100.00
2022-11-02T21:33:48.248Z,100.00
2022-11-02T21:36:16.803Z,100.00
2022-11-02T21:38:48.017Z,100.00
2022-11-02T21:41:21.182Z,100.00
2022-11-02T21:43:51.137Z,100.00
2022-11-02T21:46:18.787Z,100.00
2022-11-02T21:48:45.250Z,100.00
2022-11-02T21:51:18.976Z,100.00
2022-11-02T21:53:47.090Z,100.00
2022-11-02T21:56:16.332Z,100.00
2022-11-02T21:58:46.125Z,100.00
2022-11-02T22:01:42.304Z,100.00
2022-11-02T22:04:11.358Z,100.00
2022-11-02T22:06:38.290Z,100.00
2022-11-02T22:09:07.074Z,100.00
2022-11-02T22:11:34.420Z,100.00
2022-11-02T22:14:01.818Z,100.00
2022-11-02T22:16:37.071Z,100.00
2022-11-02T22:19:11.680Z,100.00
2022-11-02T22:21:40.671Z,100.00
2022-11-02T22:24:08.460Z,100.00
2022-11-02T22:26:36.638Z,100.00
2022-11-02T22:29:04.011Z,100.00
2022-11-02T22:31:33.749Z,100.00
2022-11-02T22:34:01.569Z,100.00
2022-11-02T22:36:31.928Z,100.00
2022-11-02T22:39:00.174Z,100.00
2022-11-02T22:41:47.056Z,100.00
2022-11-02T22:44:20.310Z,100.00
2022-11-02T22:46:49.123Z,100.00
2022-11-02T22:49:17.494Z,100.00
2022-11-02T22:51:46.440Z,100.00
2022-11-02T22:54:15.541Z,100.00
2022-11-02T22:56:43.714Z,100.00
2022-11-02T22:59:11.031Z,100.00
2022-11-02T23:01:38.448Z,100.00
2022-11-02T23:04:06.289Z,100.00
2022-11-02T23:06:33.549Z,100.00
2022-11-02T23:09:00.798Z,100.00
2022-11-02T23:11:30.555Z,100.00
2022-11-02T23:13:58.246Z,100.00
2022-11-02T23:16:29.417Z,100.00
2022-11-02T23:19:22.075Z,100.00
2022-11-02T23:22:22.785Z,100.00
2022-11-02T23:25:11.590Z,100.00
2022-11-02T23:28:17.095Z,100.00
2022-11-02T23:31:02.501Z,100.00
2022-11-02T23:33:35.577Z,100.00
2022-11-02T23:36:13.398Z,100.00
2022-11-02T23:39:00.760Z,100.00
2022-11-02T23:41:28.751Z,100.00
2022-11-02T23:44:10.875Z,100.00
2022-11-02T23:46:42.575Z,100.00
2022-11-02T23:49:09.785Z,100.00
2022-11-02T23:51:55.421Z,100.00
2022-11-02T23:54:40.905Z,100.00
2022-11-02T23:57:07.322Z,100.00
2022-11-02T23:59:33.859Z,100.00
